Terminal Aerodrome Forecast
Issued by NWS

Home | Current Version | Previous Version | Text Only | Print | Product List | Glossary On
Versions: 1 2 3 4 5 6 7 8 9 10 11 12 13 14 15 16
978
FTUS43 KLSX 221903 AAA
TAFSUS
TAF AMD
KSUS 221903Z 2219/2318 20012G18KT P6SM FEW050 FEW250
     FM222200 25009KT P6SM FEW060
     FM230300 25005KT P6SM VCTS SCT060CB
     FM230700 25005KT P6SM BKN120
     FM231200 32005KT P6SM SCT040=

USA.gov is the U.S. government's official web portal to all federal, state and local government web resources and services.